createdAt,value
2018-04-08T00:02:56.951Z,25.60
2018-04-08T00:06:00.331Z,28.17
2018-04-08T00:09:03.684Z,25.40
2018-04-08T00:12:07.046Z,24.80
2018-04-08T00:15:11.898Z,26.93
2018-04-08T00:18:16.129Z,26.27
2018-04-08T00:21:20.484Z,28.97
2018-04-08T00:24:23.843Z,26.27
2018-04-08T00:27:28.091Z,32.00
2018-04-08T00:30:31.446Z,31.47
2018-04-08T00:33:34.797Z,30.10
2018-04-08T00:36:38.157Z,32.37
2018-04-08T00:39:42.355Z,28.37
2018-04-08T00:42:45.809Z,28.17
2018-04-08T00:45:49.181Z,28.17
2018-04-08T00:48:53.305Z,27.67
2018-04-08T00:51:57.485Z,27.03
2018-04-08T00:55:00.860Z,30.30
2018-04-08T00:58:04.235Z,30.90
2018-04-08T01:01:07.757Z,27.50
2018-04-08T01:04:11.115Z,31.50
2018-04-08T01:07:15.246Z,33.23
2018-04-08T01:10:18.606Z,30.70
2018-04-08T01:13:21.966Z,30.37
2018-04-08T01:16:26.018Z,26.57
2018-04-08T01:19:30.875Z,30.00
2018-04-08T01:22:35.006Z,32.57
2018-04-08T01:25:38.368Z,32.70
2018-04-08T01:28:43.228Z,31.93
2018-04-08T01:31:47.377Z,35.33
2018-04-08T01:34:50.721Z,32.93
2018-04-08T01:37:54.089Z,29.37
2018-04-08T01:40:57.442Z,36.70
2018-04-08T01:44:01.591Z,33.97
2018-04-08T01:47:04.949Z,34.83
2018-04-08T01:50:08.365Z,34.53
2018-04-08T01:53:12.486Z,34.53
2018-04-08T01:56:15.836Z,31.67
2018-04-08T01:59:19.220Z,33.43
2018-04-08T02:02:22.574Z,33.63
2018-04-08T02:05:26.699Z,35.87
2018-04-08T02:08:30.054Z,35.83
2018-04-08T02:11:34.201Z,38.47
2018-04-08T02:14:38.313Z,36.37
2018-04-08T02:17:41.775Z,34.83
2018-04-08T02:20:45.149Z,35.97
2018-04-08T02:23:48.739Z,29.47
2018-04-08T02:26:52.096Z,29.97
2018-04-08T02:29:55.458Z,32.83
2018-04-08T02:32:58.829Z,31.87
2018-04-08T02:36:03.005Z,34.77
2018-04-08T02:39:06.382Z,31.70
2018-04-08T02:42:09.761Z,36.90
2018-04-08T02:45:13.225Z,32.57
2018-04-08T02:48:16.578Z,28.77
2018-04-08T02:51:19.944Z,27.50
2018-04-08T02:54:24.079Z,29.70
2018-04-08T02:57:27.405Z,28.80
2018-04-08T03:00:30.841Z,24.63
2018-04-08T03:03:34.203Z,25.20
2018-04-08T03:06:37.578Z,27.93
2018-04-08T03:09:40.936Z,26.73
2018-04-08T03:12:45.070Z,27.23
2018-04-08T03:15:49.195Z,26.33
2018-04-08T03:18:52.657Z,34.53
2018-04-08T03:21:56.947Z,26.37
2018-04-08T03:25:00.317Z,33.80
2018-04-08T03:28:03.731Z,27.10
2018-04-08T03:31:07.082Z,27.73
2018-04-08T03:34:10.488Z,26.43
2018-04-08T03:37:13.837Z,25.67
2018-04-08T03:40:17.192Z,26.70
2018-04-08T03:43:20.547Z,27.57
2018-04-08T03:46:24.017Z,26.80
2018-04-08T03:49:27.356Z,28.57
2018-04-08T03:52:30.762Z,27.67
2018-04-08T03:55:34.108Z,26.80
2018-04-08T03:58:38.261Z,27.20
2018-04-08T04:01:41.735Z,26.93
2018-04-08T04:04:45.301Z,26.43
2018-04-08T04:07:48.647Z,24.93
2018-04-08T04:10:51.997Z,27.30
2018-04-08T04:13:56.118Z,29.00
2018-04-08T04:16:59.494Z,27.23
2018-04-08T04:20:20.830Z,26.67
2018-04-08T04:23:42.078Z,27.77
2018-04-08T04:26:46.203Z,26.83
2018-04-08T04:29:49.595Z,32.33
2018-04-08T04:32:53.711Z,35.73
2018-04-08T04:35:57.909Z,35.63
2018-04-08T04:39:01.275Z,34.33
2018-04-08T04:42:04.656Z,33.13
2018-04-08T04:45:08.022Z,31.17
2018-04-08T04:48:12.144Z,33.70
2018-04-08T04:51:16.305Z,33.20
2018-04-08T04:54:19.635Z,36.00
2018-04-08T04:57:23.107Z,37.70
2018-04-08T05:00:26.580Z,33.73
2018-04-08T05:03:29.955Z,34.67
2018-04-08T05:06:34.077Z,33.30
2018-04-08T05:09:38.273Z,31.57
2018-04-08T05:12:41.638Z,31.17
2018-04-08T05:15:44.999Z,28.80
2018-04-08T05:18:49.126Z,27.03
2018-04-08T05:21:52.552Z,25.20
2018-04-08T05:24:55.906Z,24.27
2018-04-08T05:28:00.028Z,27.20
2018-04-08T05:31:04.154Z,26.60
2018-04-08T05:34:07.505Z,27.27
2018-04-08T05:37:10.868Z,29.13
2018-04-08T05:40:14.235Z,35.47
2018-04-08T05:43:18.362Z,34.73
2018-04-08T05:46:21.764Z,31.40
2018-04-08T05:49:25.300Z,32.50
2018-04-08T05:52:28.655Z,30.50
2018-04-08T05:55:32.800Z,26.73
2018-04-08T05:58:36.149Z,29.13
2018-04-08T06:01:39.597Z,23.67
2018-04-08T06:04:43.062Z,26.20
2018-04-08T06:07:47.233Z,24.27
2018-04-08T06:10:50.598Z,24.20
2018-04-08T06:13:54.817Z,24.33
2018-04-08T06:16:58.941Z,23.50
2018-04-08T06:20:02.288Z,22.67
2018-04-08T06:23:05.646Z,26.00
2018-04-08T06:26:09.018Z,28.57
2018-04-08T06:29:13.135Z,32.03
2018-04-08T06:32:17.264Z,26.90
2018-04-08T06:35:21.389Z,32.73
2018-04-08T06:38:24.757Z,29.23
2018-04-08T06:41:28.119Z,26.33
2018-04-08T06:44:31.490Z,28.67
2018-04-08T06:47:34.851Z,27.60
2018-04-08T06:50:38.202Z,22.90
2018-04-08T06:53:41.580Z,24.13
2018-04-08T06:56:44.934Z,22.90
2018-04-08T06:59:49.101Z,25.33
2018-04-08T07:02:52.465Z,24.07
2018-04-08T07:05:55.812Z,27.03
2018-04-08T07:08:59.195Z,27.43
2018-04-08T07:12:02.586Z,26.37
2018-04-08T07:15:05.958Z,24.33
2018-04-08T07:18:09.358Z,21.93
2018-04-08T07:21:12.730Z,24.00
2018-04-08T07:24:16.092Z,24.57
2018-04-08T07:27:19.460Z,21.90
2018-04-08T07:30:22.892Z,23.87
2018-04-08T07:33:26.405Z,25.33
2018-04-08T07:36:29.789Z,20.67
2018-04-08T07:39:33.166Z,20.87
2018-04-08T07:42:36.539Z,22.60
2018-04-08T07:45:39.995Z,20.43
2018-04-08T07:48:43.354Z,19.50
2018-04-08T07:51:46.734Z,24.60
2018-04-08T07:54:50.091Z,18.63
2018-04-08T07:57:53.449Z,21.30
2018-04-08T08:00:56.884Z,20.13
2018-04-08T08:04:00.244Z,19.27
2018-04-08T08:07:03.621Z,17.60
2018-04-08T08:10:06.984Z,17.27
2018-04-08T08:13:10.359Z,16.83
2018-04-08T08:16:14.597Z,16.53
2018-04-08T08:19:18.760Z,19.83
2018-04-08T08:22:22.190Z,18.07
2018-04-08T08:25:25.579Z,18.00
2018-04-08T08:28:28.966Z,14.33
2018-04-08T08:31:32.363Z,15.17
2018-04-08T08:34:35.837Z,17.43
2018-04-08T08:37:39.215Z,19.03
2018-04-08T08:40:43.347Z,17.67
2018-04-08T08:43:46.704Z,18.97
2018-04-08T08:46:50.083Z,19.37
2018-04-08T08:49:53.556Z,18.47
2018-04-08T08:52:56.931Z,18.87
2018-04-08T08:56:01.084Z,21.20
2018-04-08T08:59:04.523Z,21.57
2018-04-08T09:02:07.962Z,19.13
2018-04-08T09:05:11.337Z,20.87
2018-04-08T09:08:15.468Z,21.30
2018-04-08T09:11:18.948Z,23.53
2018-04-08T09:14:22.398Z,22.70
2018-04-08T09:17:25.781Z,19.33
2018-04-08T09:20:31.035Z,23.80
2018-04-08T09:23:46.138Z,22.53
2018-04-08T09:26:49.527Z,21.57
2018-04-08T09:29:52.940Z,22.13
2018-04-08T09:32:56.323Z,21.53
2018-04-08T09:35:59.690Z,21.83
2018-04-08T09:39:03.078Z,23.03
2018-04-08T09:42:07.214Z,21.13
2018-04-08T09:45:10.765Z,25.07
2018-04-08T09:48:14.157Z,23.13
2018-04-08T09:51:17.570Z,23.53
2018-04-08T09:54:20.952Z,23.23
2018-04-08T09:57:24.313Z,22.73
2018-04-08T10:00:34.037Z,24.67
2018-04-08T10:03:46.560Z,23.10
2018-04-08T10:06:50.691Z,23.17
2018-04-08T10:09:54.205Z,22.70
2018-04-08T10:12:57.770Z,21.33
2018-04-08T10:16:01.899Z,22.53
2018-04-08T10:19:06.034Z,25.17
2018-04-08T10:22:09.421Z,22.73
2018-04-08T10:25:12.805Z,27.63
2018-04-08T10:28:17.009Z,23.57
2018-04-08T10:31:20.366Z,25.77
2018-04-08T10:34:23.737Z,23.43
2018-04-08T10:37:27.121Z,22.73
2018-04-08T10:40:31.283Z,22.50
2018-04-08T10:43:34.662Z,25.90
2018-04-08T10:46:38.098Z,22.53
2018-04-08T10:49:41.464Z,23.53
2018-04-08T10:52:44.881Z,22.23
2018-04-08T10:55:48.245Z,23.10
2018-04-08T10:58:52.378Z,23.33
2018-04-08T11:01:55.782Z,24.27
2018-04-08T11:04:59.194Z,26.80
2018-04-08T11:08:03.360Z,25.13
2018-04-08T11:11:06.758Z,25.37
2018-04-08T11:14:10.129Z,22.07
2018-04-08T11:17:13.524Z,22.73
2018-04-08T11:20:16.894Z,22.57
2018-04-08T11:23:20.333Z,23.40
2018-04-08T11:26:23.705Z,24.23
2018-04-08T11:29:27.102Z,26.43
2018-04-08T11:32:30.482Z,24.30
2018-04-08T11:35:34.715Z,23.00
2018-04-08T11:38:38.097Z,25.83
2018-04-08T11:41:42.394Z,26.77
2018-04-08T11:44:45.798Z,26.40
2018-04-08T11:47:49.165Z,26.47
2018-04-08T11:50:52.533Z,28.20
2018-04-08T11:53:56.042Z,25.40
2018-04-08T11:56:59.462Z,29.20
2018-04-08T12:00:02.835Z,28.37
2018-04-08T12:03:06.207Z,30.00
2018-04-08T12:06:10.351Z,30.57
2018-04-08T12:09:13.778Z,29.73
2018-04-08T12:12:17.223Z,27.83
2018-04-08T12:15:21.476Z,28.93
2018-04-08T12:18:24.850Z,35.80
2018-04-08T12:21:28.993Z,27.07
2018-04-08T12:24:32.375Z,30.80
2018-04-08T12:27:36.520Z,30.87
2018-04-08T12:30:39.897Z,28.00
2018-04-08T12:33:43.315Z,29.57
2018-04-08T12:36:46.761Z,35.03
2018-04-08T12:39:50.134Z,31.77
2018-04-08T12:42:53.598Z,32.17
2018-04-08T12:45:57.728Z,32.43
2018-04-08T12:49:01.090Z,32.57
2018-04-08T12:52:04.502Z,35.63
2018-04-08T12:55:08.643Z,37.10
2018-04-08T12:58:12.005Z,36.37
2018-04-08T13:01:15.558Z,35.40
2018-04-08T13:04:19.062Z,35.27
2018-04-08T13:07:22.466Z,34.80
2018-04-08T13:10:25.872Z,36.00
2018-04-08T13:13:29.217Z,34.27
2018-04-08T13:16:33.368Z,37.20
2018-04-08T13:19:36.723Z,36.17
2018-04-08T13:22:41.605Z,35.30
2018-04-08T13:25:45.874Z,33.40
2018-04-08T13:28:50.027Z,34.40
2018-04-08T13:31:53.408Z,34.47
2018-04-08T13:34:57.541Z,32.97
2018-04-08T13:38:00.914Z,30.10
2018-04-08T13:41:04.289Z,29.47
2018-04-08T13:44:07.746Z,30.10
2018-04-08T13:47:11.131Z,32.70
2018-04-08T13:50:15.294Z,30.60
2018-04-08T13:53:18.686Z,31.60
2018-04-08T13:56:22.133Z,31.33
2018-04-08T13:59:26.280Z,32.97
2018-04-08T14:02:29.741Z,29.53
2018-04-08T14:05:33.144Z,32.63
2018-04-08T14:08:36.597Z,30.40
2018-04-08T14:11:39.981Z,27.43
2018-04-08T14:14:43.376Z,27.73
2018-04-08T14:17:47.514Z,30.27
2018-04-08T14:20:51.012Z,25.00
2018-04-08T14:23:54.379Z,28.43
2018-04-08T14:26:58.512Z,27.07
2018-04-08T14:30:02.756Z,30.23
2018-04-08T14:33:06.146Z,28.67
2018-04-08T14:36:09.554Z,24.63
2018-04-08T14:39:12.952Z,28.33
2018-04-08T14:42:16.423Z,29.80
2018-04-08T14:45:20.536Z,28.10
2018-04-08T14:48:24.675Z,28.27
2018-04-08T14:51:28.051Z,32.23
2018-04-08T14:54:32.208Z,28.30
2018-04-08T14:57:35.699Z,34.37
2018-04-08T15:00:39.388Z,34.40
2018-04-08T15:03:43.742Z,30.30
2018-04-08T15:06:47.154Z,28.83
2018-04-08T15:09:50.517Z,32.60
2018-04-08T15:12:53.883Z,28.37
2018-04-08T15:15:57.271Z,32.97
2018-04-08T15:19:00.738Z,28.70
2018-04-08T15:22:04.123Z,30.10
2018-04-08T15:25:07.499Z,29.73
2018-04-08T15:28:11.675Z,30.23
2018-04-08T15:31:15.071Z,29.90
2018-04-08T15:34:18.456Z,30.60
2018-04-08T15:37:21.833Z,32.57
2018-04-08T15:40:25.236Z,29.17
2018-04-08T15:43:29.352Z,31.10
2018-04-08T15:46:32.737Z,30.30
2018-04-08T15:49:36.871Z,31.10
2018-04-08T15:52:40.276Z,30.83
2018-04-08T15:55:44.119Z,30.13
2018-04-08T15:58:47.611Z,30.40
2018-04-08T16:01:50.984Z,31.00
2018-04-08T16:04:54.367Z,30.60
2018-04-08T16:07:58.548Z,29.27
2018-04-08T16:11:01.922Z,30.47
2018-04-08T16:14:05.314Z,29.57
2018-04-08T16:17:08.662Z,31.57
2018-04-08T16:20:12.897Z,30.67
2018-04-08T16:23:17.080Z,30.67
2018-04-08T16:26:20.512Z,27.77
2018-04-08T16:29:23.872Z,29.13
2018-04-08T16:32:27.268Z,30.67
2018-04-08T16:35:30.618Z,29.47
2018-04-08T16:38:34.802Z,32.53
2018-04-08T16:41:38.164Z,30.30
2018-04-08T16:44:41.666Z,29.00
2018-04-08T16:47:45.121Z,29.97
2018-04-08T16:50:48.648Z,29.00
2018-04-08T16:53:52.808Z,28.77
2018-04-08T16:56:56.185Z,28.97
2018-04-08T16:59:59.662Z,25.67
2018-04-08T17:03:03.807Z,30.00
2018-04-08T17:06:07.179Z,28.63
2018-04-08T17:09:11.313Z,31.00
2018-04-08T17:12:14.737Z,31.10
2018-04-08T17:15:18.643Z,34.47
2018-04-08T17:18:22.078Z,30.60
2018-04-08T17:21:25.479Z,32.57
2018-04-08T17:24:28.851Z,33.53
2018-04-08T17:27:32.244Z,32.17
2018-04-08T17:30:35.639Z,30.13
2018-04-08T17:33:39.014Z,29.00
2018-04-08T17:36:43.175Z,30.93
2018-04-08T17:39:46.571Z,32.17
2018-04-08T17:42:50.911Z,30.93
2018-04-08T17:45:54.353Z,31.73
2018-04-08T17:48:58.545Z,31.27
2018-04-08T17:52:01.931Z,30.20
2018-04-08T17:55:05.314Z,30.70
2018-04-08T17:58:08.766Z,32.20
2018-04-08T18:01:12.135Z,29.37
2018-04-08T18:04:15.583Z,30.83
2018-04-08T18:07:19.711Z,30.77
2018-04-08T18:10:24.017Z,29.53
2018-04-08T18:13:27.412Z,31.33
2018-04-08T18:16:30.792Z,32.60
2018-04-08T18:19:34.207Z,31.73
2018-04-08T18:22:37.587Z,32.43
2018-04-08T18:25:40.970Z,30.73
2018-04-08T18:28:44.348Z,32.07
2018-04-08T18:31:47.726Z,29.80
2018-04-08T18:34:51.878Z,30.27
2018-04-08T18:37:55.267Z,31.03
2018-04-08T18:40:58.675Z,28.53
2018-04-08T18:44:02.084Z,31.17
2018-04-08T18:47:05.474Z,30.50
2018-04-08T18:50:08.849Z,31.50
2018-04-08T18:53:13.046Z,30.30
2018-04-08T18:56:16.468Z,30.10
2018-04-08T18:59:20.628Z,34.37
2018-04-08T19:02:24.058Z,33.50
2018-04-08T19:05:27.611Z,34.60
2018-04-08T19:08:31.031Z,40.43
2018-04-08T19:11:34.472Z,31.47
2018-04-08T19:14:43.302Z,29.87
2018-04-08T19:17:52.975Z,33.53
2018-04-08T19:20:56.343Z,29.73
2018-04-08T19:23:59.752Z,31.77
2018-04-08T19:27:03.890Z,32.70
2018-04-08T19:30:12.896Z,33.40
2018-04-08T19:33:17.151Z,30.80
2018-04-08T19:36:20.538Z,31.80
2018-04-08T19:39:23.922Z,36.33
2018-04-08T19:42:28.064Z,33.47
2018-04-08T19:45:31.434Z,32.13
2018-04-08T19:48:35.768Z,36.20
2018-04-08T19:51:39.992Z,30.93
2018-04-08T19:54:43.384Z,33.80
2018-04-08T19:57:47.546Z,33.87
2018-04-08T20:00:51.011Z,34.00
2018-04-08T20:03:54.544Z,40.10
2018-04-08T20:06:58.716Z,38.83
2018-04-08T20:10:02.147Z,39.50
2018-04-08T20:13:06.336Z,35.97
2018-04-08T20:16:09.777Z,37.67
2018-04-08T20:19:14.126Z,35.10
2018-04-08T20:22:17.521Z,37.37
2018-04-08T20:25:20.997Z,36.27
2018-04-08T20:28:25.127Z,38.87
2018-04-08T20:31:29.353Z,42.73
2018-04-08T20:34:32.808Z,40.73
2018-04-08T20:37:36.333Z,37.70
2018-04-08T20:40:40.498Z,38.07
2018-04-08T20:43:43.867Z,40.87
2018-04-08T20:46:47.382Z,38.13
2018-04-08T20:49:50.732Z,49.03
2018-04-08T20:52:54.119Z,45.73
2018-04-08T20:55:57.516Z,41.00
2018-04-08T20:59:00.897Z,38.33
2018-04-08T21:02:04.276Z,39.20
2018-04-08T21:05:07.707Z,44.37
2018-04-08T21:08:11.082Z,45.70
2018-04-08T21:11:14.467Z,40.07
2018-04-08T21:14:18.624Z,43.33
2018-04-08T21:17:22.003Z,41.20
2018-04-08T21:20:25.416Z,43.53
2018-04-08T21:23:28.794Z,46.33
2018-04-08T21:26:32.200Z,46.80
2018-04-08T21:29:35.595Z,41.93
2018-04-08T21:32:38.989Z,42.83
2018-04-08T21:35:42.349Z,39.57
2018-04-08T21:38:45.713Z,46.03
2018-04-08T21:41:49.077Z,42.30
2018-04-08T21:44:53.213Z,42.53
2018-04-08T21:47:56.582Z,41.43
2018-04-08T21:51:00.716Z,44.07
2018-04-08T21:54:04.093Z,43.97
2018-04-08T21:57:07.515Z,43.73
2018-04-08T22:00:11.914Z,45.27
2018-04-08T22:03:16.057Z,63.40
2018-04-08T22:06:19.413Z,51.63
2018-04-08T22:09:22.786Z,46.43
2018-04-08T22:12:26.177Z,47.07
2018-04-08T22:15:29.654Z,46.93
2018-04-08T22:18:33.210Z,48.23
2018-04-08T22:21:36.589Z,48.17
2018-04-08T22:24:39.964Z,48.50
2018-04-08T22:27:43.360Z,45.40
2018-04-08T22:30:46.743Z,46.10
2018-04-08T22:33:50.884Z,49.63
2018-04-08T22:36:54.258Z,58.63
2018-04-08T22:39:58.376Z,52.13
2018-04-08T22:43:02.521Z,57.50
2018-04-08T22:46:05.984Z,53.57
2018-04-08T22:49:09.359Z,54.10
2018-04-08T22:52:12.717Z,46.90
2018-04-08T22:55:16.082Z,50.03
2018-04-08T22:58:19.467Z,52.17
2018-04-08T23:01:22.819Z,52.90
2018-04-08T23:04:26.191Z,51.10
2018-04-08T23:07:30.374Z,53.10
2018-04-08T23:10:33.766Z,54.40
2018-04-08T23:13:37.141Z,53.50
2018-04-08T23:16:40.514Z,53.60
2018-04-08T23:19:44.675Z,53.10
2018-04-08T23:22:48.228Z,52.83
2018-04-08T23:25:52.567Z,50.63
2018-04-08T23:28:55.942Z,54.60
2018-04-08T23:31:59.319Z,49.60
2018-04-08T23:35:02.697Z,51.57
2018-04-08T23:38:06.086Z,53.30
2018-04-08T23:41:09.497Z,58.60
2018-04-08T23:44:12.866Z,54.13
2018-04-08T23:47:16.248Z,52.27
2018-04-08T23:50:20.401Z,58.07
2018-04-08T23:53:23.795Z,55.60
2018-04-08T23:56:27.153Z,58.10
2018-04-08T23:59:30.529Z,50.47
